Terminal Aerodrome Forecast
Issued by NWS

Home | Current Version | Previous Version | Text Only | Print | Product List | Glossary Off
Versions: 1 2 3 4 5 6 7 8 9 10 11 12 13 14 15 16 17 18 19

000
FTUS43 KICT 070932 AAA
TAFRSL
TAF AMD
KRSL 070932Z 0710/0806 VRB05KT P6SM OVC100
     FM071200 05011KT P6SM -SN SCT040 OVC070
      TEMPO 0714/0717 3SM -SN BR OVC025
     FM071700 03012KT P6SM OVC025
     FM072100 36012KT P6SM OVC035
     FM080000 34007KT P6SM BKN080=

USA.gov is the U.S. government's official web portal to all federal, state and local government web resources and services.